sensor_id;sensor_type;location;lat;lon;timestamp;P1;durP1;ratioP1;P2;durP2;ratioP2
64816;SDS011;69411;45.656;11.740;2023-08-17T00:02:13;11.45;;;10.07;;
64816;SDS011;69411;45.656;11.740;2023-08-17T00:04:39;10.85;;;9.20;;
64816;SDS011;69411;45.656;11.740;2023-08-17T00:07:08;13.40;;;10.18;;
64816;SDS011;69411;45.656;11.740;2023-08-17T00:09:36;11.85;;;10.45;;
64816;SDS011;69411;45.656;11.740;2023-08-17T00:12:04;12.85;;;9.45;;
64816;SDS011;69411;45.656;11.740;2023-08-17T00:14:33;11.77;;;9.60;;
64816;SDS011;69411;45.656;11.740;2023-08-17T00:17:01;10.80;;;9.70;;
64816;SDS011;69411;45.656;11.740;2023-08-17T00:19:30;11.25;;;9.45;;
64816;SDS011;69411;45.656;11.740;2023-08-17T00:21:56;11.00;;;9.80;;
64816;SDS011;69411;45.656;11.740;2023-08-17T00:24:24;11.88;;;10.60;;
64816;SDS011;69411;45.656;11.740;2023-08-17T00:26:52;16.95;;;13.05;;
64816;SDS011;69411;45.656;11.740;2023-08-17T00:29:18;13.98;;;11.45;;
64816;SDS011;69411;45.656;11.740;2023-08-17T00:31:44;13.45;;;10.20;;
64816;SDS011;69411;45.656;11.740;2023-08-17T00:34:10;12.35;;;10.82;;
64816;SDS011;69411;45.656;11.740;2023-08-17T00:36:36;14.40;;;10.95;;
64816;SDS011;69411;45.656;11.740;2023-08-17T00:39:02;13.77;;;11.05;;
64816;SDS011;69411;45.656;11.740;2023-08-17T00:41:30;14.70;;;11.43;;
64816;SDS011;69411;45.656;11.740;2023-08-17T00:43:59;13.48;;;10.60;;
64816;SDS011;69411;45.656;11.740;2023-08-17T00:46:27;14.68;;;12.10;;
64816;SDS011;69411;45.656;11.740;2023-08-17T00:48:56;13.65;;;11.25;;
64816;SDS011;69411;45.656;11.740;2023-08-17T00:51:24;15.43;;;10.75;;
64816;SDS011;69411;45.656;11.740;2023-08-17T00:53:52;13.95;;;10.80;;
64816;SDS011;69411;45.656;11.740;2023-08-17T00:56:26;15.05;;;11.80;;
64816;SDS011;69411;45.656;11.740;2023-08-17T00:58:53;16.48;;;12.25;;
64816;SDS011;69411;45.656;11.740;2023-08-17T01:01:20;15.70;;;11.70;;
64816;SDS011;69411;45.656;11.740;2023-08-17T01:03:46;16.83;;;12.75;;
64816;SDS011;69411;45.656;11.740;2023-08-17T01:06:13;16.25;;;13.10;;
64816;SDS011;69411;45.656;11.740;2023-08-17T01:08:39;15.88;;;12.98;;
64816;SDS011;69411;45.656;11.740;2023-08-17T01:11:29;14.07;;;11.55;;
64816;SDS011;69411;45.656;11.740;2023-08-17T01:16:56;13.35;;;10.93;;
64816;SDS011;69411;45.656;11.740;2023-08-17T01:19:44;16.83;;;12.30;;
64816;SDS011;69411;45.656;11.740;2023-08-17T01:22:11;13.02;;;11.07;;
64816;SDS011;69411;45.656;11.740;2023-08-17T01:24:43;15.05;;;11.40;;
64816;SDS011;69411;45.656;11.740;2023-08-17T01:27:10;16.20;;;12.45;;
64816;SDS011;69411;45.656;11.740;2023-08-17T01:29:39;12.95;;;10.43;;
64816;SDS011;69411;45.656;11.740;2023-08-17T01:34:45;17.80;;;13.38;;
64816;SDS011;69411;45.656;11.740;2023-08-17T01:37:34;19.23;;;14.25;;
64816;SDS011;69411;45.656;11.740;2023-08-17T01:40:04;15.88;;;12.70;;
64816;SDS011;69411;45.656;11.740;2023-08-17T01:42:32;14.43;;;11.88;;
64816;SDS011;69411;45.656;11.740;2023-08-17T01:45:06;14.85;;;11.50;;
64816;SDS011;69411;45.656;11.740;2023-08-17T01:47:32;13.65;;;11.70;;
64816;SDS011;69411;45.656;11.740;2023-08-17T01:50:02;14.80;;;13.20;;
64816;SDS011;69411;45.656;11.740;2023-08-17T01:52:30;14.48;;;11.45;;
64816;SDS011;69411;45.656;11.740;2023-08-17T01:54:59;14.25;;;12.38;;
64816;SDS011;69411;45.656;11.740;2023-08-17T01:57:27;15.10;;;11.90;;
64816;SDS011;69411;45.656;11.740;2023-08-17T01:59:54;14.20;;;11.75;;
64816;SDS011;69411;45.656;11.740;2023-08-17T02:02:19;13.32;;;11.27;;
64816;SDS011;69411;45.656;11.740;2023-08-17T02:04:46;13.02;;;11.52;;
64816;SDS011;69411;45.656;11.740;2023-08-17T02:07:14;13.13;;;10.60;;
64816;SDS011;69411;45.656;11.740;2023-08-17T02:09:40;12.73;;;10.77;;
64816;SDS011;69411;45.656;11.740;2023-08-17T02:12:06;14.45;;;11.80;;
64816;SDS011;69411;45.656;11.740;2023-08-17T02:14:35;15.63;;;12.52;;
64816;SDS011;69411;45.656;11.740;2023-08-17T02:17:03;19.38;;;14.75;;
64816;SDS011;69411;45.656;11.740;2023-08-17T02:19:31;14.40;;;11.30;;
64816;SDS011;69411;45.656;11.740;2023-08-17T02:21:58;16.63;;;12.48;;
64816;SDS011;69411;45.656;11.740;2023-08-17T02:24:25;17.55;;;12.95;;
64816;SDS011;69411;45.656;11.740;2023-08-17T02:26:51;14.25;;;11.68;;
64816;SDS011;69411;45.656;11.740;2023-08-17T02:29:17;14.30;;;11.88;;
64816;SDS011;69411;45.656;11.740;2023-08-17T02:31:43;13.20;;;11.25;;
64816;SDS011;69411;45.656;11.740;2023-08-17T02:34:09;13.18;;;11.38;;
64816;SDS011;69411;45.656;11.740;2023-08-17T02:36:38;14.68;;;10.82;;
64816;SDS011;69411;45.656;11.740;2023-08-17T02:39:06;13.43;;;10.38;;
64816;SDS011;69411;45.656;11.740;2023-08-17T02:41:34;13.77;;;11.25;;
64816;SDS011;69411;45.656;11.740;2023-08-17T02:44:08;14.02;;;11.48;;
64816;SDS011;69411;45.656;11.740;2023-08-17T02:46:34;13.18;;;10.52;;
64816;SDS011;69411;45.656;11.740;2023-08-17T02:49:00;13.68;;;11.32;;
64816;SDS011;69411;45.656;11.740;2023-08-17T02:51:32;12.90;;;10.75;;
64816;SDS011;69411;45.656;11.740;2023-08-17T02:54:01;14.20;;;10.88;;
64816;SDS011;69411;45.656;11.740;2023-08-17T02:56:27;13.65;;;11.48;;
64816;SDS011;69411;45.656;11.740;2023-08-17T02:58:53;13.82;;;11.10;;
64816;SDS011;69411;45.656;11.740;2023-08-17T03:01:20;13.70;;;10.95;;
64816;SDS011;69411;45.656;11.740;2023-08-17T03:03:47;13.02;;;11.02;;
64816;SDS011;69411;45.656;11.740;2023-08-17T03:06:13;13.30;;;11.15;;
64816;SDS011;69411;45.656;11.740;2023-08-17T03:08:39;16.25;;;11.70;;
64816;SDS011;69411;45.656;11.740;2023-08-17T03:11:07;14.25;;;12.25;;
64816;SDS011;69411;45.656;11.740;2023-08-17T03:13:35;16.05;;;13.45;;
64816;SDS011;69411;45.656;11.740;2023-08-17T03:16:01;15.25;;;13.35;;
64816;SDS011;69411;45.656;11.740;2023-08-17T03:18:28;16.45;;;13.00;;
64816;SDS011;69411;45.656;11.740;2023-08-17T03:20:55;15.88;;;13.20;;
64816;SDS011;69411;45.656;11.740;2023-08-17T03:23:21;17.88;;;12.30;;
64816;SDS011;69411;45.656;11.740;2023-08-17T03:25:50;15.38;;;12.07;;
64816;SDS011;69411;45.656;11.740;2023-08-17T03:28:17;14.93;;;11.73;;
64816;SDS011;69411;45.656;11.740;2023-08-17T03:30:44;13.85;;;11.63;;
64816;SDS011;69411;45.656;11.740;2023-08-17T03:33:12;13.07;;;11.20;;
64816;SDS011;69411;45.656;11.740;2023-08-17T03:35:38;12.75;;;11.10;;
64816;SDS011;69411;45.656;11.740;2023-08-17T03:38:06;14.32;;;11.43;;
64816;SDS011;69411;45.656;11.740;2023-08-17T03:40:32;13.70;;;10.75;;
64816;SDS011;69411;45.656;11.740;2023-08-17T03:42:58;15.30;;;11.18;;
64816;SDS011;69411;45.656;11.740;2023-08-17T03:45:23;12.80;;;10.00;;
64816;SDS011;69411;45.656;11.740;2023-08-17T03:47:51;13.93;;;10.80;;
64816;SDS011;69411;45.656;11.740;2023-08-17T03:50:17;12.23;;;9.98;;
64816;SDS011;69411;45.656;11.740;2023-08-17T03:52:45;17.50;;;13.43;;
64816;SDS011;69411;45.656;11.740;2023-08-17T03:55:13;14.40;;;11.50;;
64816;SDS011;69411;45.656;11.740;2023-08-17T03:57:39;13.23;;;10.60;;
64816;SDS011;69411;45.656;11.740;2023-08-17T04:00:05;13.73;;;10.68;;
64816;SDS011;69411;45.656;11.740;2023-08-17T04:02:35;16.33;;;11.98;;
64816;SDS011;69411;45.656;11.740;2023-08-17T04:05:02;14.00;;;10.68;;
64816;SDS011;69411;45.656;11.740;2023-08-17T04:07:28;11.68;;;10.00;;
64816;SDS011;69411;45.656;11.740;2023-08-17T04:09:54;12.98;;;11.20;;
64816;SDS011;69411;45.656;11.740;2023-08-17T04:12:20;18.48;;;11.02;;
64816;SDS011;69411;45.656;11.740;2023-08-17T04:14:58;13.63;;;11.00;;
64816;SDS011;69411;45.656;11.740;2023-08-17T04:17:27;15.30;;;10.65;;
64816;SDS011;69411;45.656;11.740;2023-08-17T04:20:00;13.70;;;10.88;;
64816;SDS011;69411;45.656;11.740;2023-08-17T04:22:26;12.50;;;10.82;;
64816;SDS011;69411;45.656;11.740;2023-08-17T04:24:55;11.95;;;10.57;;
64816;SDS011;69411;45.656;11.740;2023-08-17T04:27:23;12.88;;;10.85;;
64816;SDS011;69411;45.656;11.740;2023-08-17T04:29:51;13.13;;;10.70;;
64816;SDS011;69411;45.656;11.740;2023-08-17T04:32:22;13.30;;;10.60;;
64816;SDS011;69411;45.656;11.740;2023-08-17T04:34:48;14.32;;;12.38;;
64816;SDS011;69411;45.656;11.740;2023-08-17T04:37:14;13.55;;;10.93;;
64816;SDS011;69411;45.656;11.740;2023-08-17T04:39:40;14.07;;;10.88;;
64816;SDS011;69411;45.656;11.740;2023-08-17T04:42:10;12.68;;;10.68;;
64816;SDS011;69411;45.656;11.740;2023-08-17T04:44:36;12.30;;;9.80;;
64816;SDS011;69411;45.656;11.740;2023-08-17T04:47:05;11.77;;;9.88;;
64816;SDS011;69411;45.656;11.740;2023-08-17T04:49:33;12.18;;;10.38;;
64816;SDS011;69411;45.656;11.740;2023-08-17T04:52:03;12.00;;;10.13;;
64816;SDS011;69411;45.656;11.740;2023-08-17T04:54:34;12.73;;;10.00;;
64816;SDS011;69411;45.656;11.740;2023-08-17T04:57:03;14.55;;;10.63;;
64816;SDS011;69411;45.656;11.740;2023-08-17T04:59:32;14.30;;;12.35;;
64816;SDS011;69411;45.656;11.740;2023-08-17T05:02:00;13.98;;;11.63;;
64816;SDS011;69411;45.656;11.740;2023-08-17T05:04:29;13.98;;;11.05;;
64816;SDS011;69411;45.656;11.740;2023-08-17T05:07:00;14.20;;;12.30;;
64816;SDS011;69411;45.656;11.740;2023-08-17T05:09:27;13.60;;;11.82;;
64816;SDS011;69411;45.656;11.740;2023-08-17T05:11:56;12.27;;;10.15;;
64816;SDS011;69411;45.656;11.740;2023-08-17T05:14:22;14.85;;;12.30;;
64816;SDS011;69411;45.656;11.740;2023-08-17T05:16:48;12.48;;;10.38;;
64816;SDS011;69411;45.656;11.740;2023-08-17T05:19:14;12.05;;;9.77;;
64816;SDS011;69411;45.656;11.740;2023-08-17T05:21:40;13.13;;;9.63;;
64816;SDS011;69411;45.656;11.740;2023-08-17T05:24:06;13.15;;;10.30;;
64816;SDS011;69411;45.656;11.740;2023-08-17T05:26:32;11.05;;;9.13;;
64816;SDS011;69411;45.656;11.740;2023-08-17T05:28:58;11.52;;;8.65;;
64816;SDS011;69411;45.656;11.740;2023-08-17T05:31:24;10.05;;;8.73;;
64816;SDS011;69411;45.656;11.740;2023-08-17T05:33:50;9.75;;;8.70;;
64816;SDS011;69411;45.656;11.740;2023-08-17T05:36:16;10.43;;;8.50;;
64816;SDS011;69411;45.656;11.740;2023-08-17T05:38:42;10.45;;;8.32;;
64816;SDS011;69411;45.656;11.740;2023-08-17T05:41:08;10.93;;;8.35;;
64816;SDS011;69411;45.656;11.740;2023-08-17T05:43:34;10.80;;;8.23;;
64816;SDS011;69411;45.656;11.740;2023-08-17T05:46:06;11.50;;;8.15;;
64816;SDS011;69411;45.656;11.740;2023-08-17T05:48:32;9.05;;;7.95;;
64816;SDS011;69411;45.656;11.740;2023-08-17T05:51:00;9.10;;;7.68;;
64816;SDS011;69411;45.656;11.740;2023-08-17T05:53:28;9.27;;;8.25;;
64816;SDS011;69411;45.656;11.740;2023-08-17T05:55:54;9.77;;;8.73;;
64816;SDS011;69411;45.656;11.740;2023-08-17T05:58:20;10.50;;;6.97;;
64816;SDS011;69411;45.656;11.740;2023-08-17T06:00:45;7.78;;;6.97;;
64816;SDS011;69411;45.656;11.740;2023-08-17T06:03:12;9.20;;;7.68;;
64816;SDS011;69411;45.656;11.740;2023-08-17T06:05:38;10.05;;;7.72;;
64816;SDS011;69411;45.656;11.740;2023-08-17T06:08:05;9.63;;;7.32;;
64816;SDS011;69411;45.656;11.740;2023-08-17T06:10:31;9.38;;;8.38;;
64816;SDS011;69411;45.656;11.740;2023-08-17T06:12:57;9.18;;;7.93;;
64816;SDS011;69411;45.656;11.740;2023-08-17T06:15:23;10.75;;;8.18;;
64816;SDS011;69411;45.656;11.740;2023-08-17T06:17:49;8.35;;;7.40;;
64816;SDS011;69411;45.656;11.740;2023-08-17T06:20:16;7.93;;;7.13;;
64816;SDS011;69411;45.656;11.740;2023-08-17T06:22:42;10.07;;;7.63;;
64816;SDS011;69411;45.656;11.740;2023-08-17T06:25:08;8.00;;;7.18;;
64816;SDS011;69411;45.656;11.740;2023-08-17T06:27:34;8.20;;;6.93;;
64816;SDS011;69411;45.656;11.740;2023-08-17T06:30:01;8.60;;;7.10;;
64816;SDS011;69411;45.656;11.740;2023-08-17T06:32:28;10.32;;;7.43;;
64816;SDS011;69411;45.656;11.740;2023-08-17T06:34:57;8.73;;;7.82;;
64816;SDS011;69411;45.656;11.740;2023-08-17T06:37:23;9.07;;;7.75;;
64816;SDS011;69411;45.656;11.740;2023-08-17T06:39:49;10.75;;;8.10;;
64816;SDS011;69411;45.656;11.740;2023-08-17T06:42:15;9.10;;;7.45;;
64816;SDS011;69411;45.656;11.740;2023-08-17T06:44:41;9.05;;;7.18;;
64816;SDS011;69411;45.656;11.740;2023-08-17T06:47:07;10.18;;;7.65;;
64816;SDS011;69411;45.656;11.740;2023-08-17T06:49:34;11.05;;;7.45;;
64816;SDS011;69411;45.656;11.740;2023-08-17T06:52:00;11.77;;;7.60;;
64816;SDS011;69411;45.656;11.740;2023-08-17T06:54:26;8.95;;;7.78;;
64816;SDS011;69411;45.656;11.740;2023-08-17T06:56:52;8.25;;;7.38;;
64816;SDS011;69411;45.656;11.740;2023-08-17T06:59:18;9.45;;;7.05;;
64816;SDS011;69411;45.656;11.740;2023-08-17T07:01:44;10.35;;;7.65;;
64816;SDS011;69411;45.656;11.740;2023-08-17T07:04:09;9.23;;;7.88;;
64816;SDS011;69411;45.656;11.740;2023-08-17T07:06:35;9.95;;;7.78;;
64816;SDS011;69411;45.656;11.740;2023-08-17T07:09:01;10.95;;;7.93;;
64816;SDS011;69411;45.656;11.740;2023-08-17T07:11:30;10.00;;;7.88;;
64816;SDS011;69411;45.656;11.740;2023-08-17T07:13:57;11.10;;;7.70;;
64816;SDS011;69411;45.656;11.740;2023-08-17T07:16:23;9.20;;;7.90;;
64816;SDS011;69411;45.656;11.740;2023-08-17T07:18:49;9.50;;;7.70;;
64816;SDS011;69411;45.656;11.740;2023-08-17T07:21:15;8.82;;;7.93;;
64816;SDS011;69411;45.656;11.740;2023-08-17T07:23:43;10.27;;;7.95;;
64816;SDS011;69411;45.656;11.740;2023-08-17T07:26:10;8.80;;;7.45;;
64816;SDS011;69411;45.656;11.740;2023-08-17T07:28:36;9.68;;;7.88;;
64816;SDS011;69411;45.656;11.740;2023-08-17T07:31:02;9.77;;;7.10;;
64816;SDS011;69411;45.656;11.740;2023-08-17T07:33:28;8.68;;;7.53;;
64816;SDS011;69411;45.656;11.740;2023-08-17T07:35:54;10.75;;;8.80;;
64816;SDS011;69411;45.656;11.740;2023-08-17T07:38:21;8.35;;;7.53;;
64816;SDS011;69411;45.656;11.740;2023-08-17T07:40:47;8.57;;;7.20;;
64816;SDS011;69411;45.656;11.740;2023-08-17T07:43:13;8.02;;;7.07;;
64816;SDS011;69411;45.656;11.740;2023-08-17T07:45:39;10.80;;;7.68;;
64816;SDS011;69411;45.656;11.740;2023-08-17T07:48:05;9.88;;;7.13;;
64816;SDS011;69411;45.656;11.740;2023-08-17T07:50:33;8.68;;;7.78;;
64816;SDS011;69411;45.656;11.740;2023-08-17T07:52:59;10.75;;;6.90;;
64816;SDS011;69411;45.656;11.740;2023-08-17T07:55:25;8.52;;;7.10;;
64816;SDS011;69411;45.656;11.740;2023-08-17T07:57:53;8.35;;;7.10;;
64816;SDS011;69411;45.656;11.740;2023-08-17T08:00:19;9.40;;;7.30;;
64816;SDS011;69411;45.656;11.740;2023-08-17T08:02:46;9.00;;;7.00;;
64816;SDS011;69411;45.656;11.740;2023-08-17T08:05:12;9.10;;;6.82;;
64816;SDS011;69411;45.656;11.740;2023-08-17T08:07:39;8.82;;;7.07;;
64816;SDS011;69411;45.656;11.740;2023-08-17T08:10:05;8.25;;;7.00;;
64816;SDS011;69411;45.656;11.740;2023-08-17T08:12:31;9.65;;;7.82;;
64816;SDS011;69411;45.656;11.740;2023-08-17T08:14:57;7.55;;;6.85;;
64816;SDS011;69411;45.656;11.740;2023-08-17T08:17:23;9.07;;;7.95;;
64816;SDS011;69411;45.656;11.740;2023-08-17T08:19:49;9.75;;;7.38;;
64816;SDS011;69411;45.656;11.740;2023-08-17T08:22:16;7.38;;;6.57;;
64816;SDS011;69411;45.656;11.740;2023-08-17T08:24:44;10.90;;;7.70;;
64816;SDS011;69411;45.656;11.740;2023-08-17T08:27:10;10.00;;;7.82;;
64816;SDS011;69411;45.656;11.740;2023-08-17T08:29:36;8.52;;;7.10;;
64816;SDS011;69411;45.656;11.740;2023-08-17T08:32:02;8.77;;;7.35;;
64816;SDS011;69411;45.656;11.740;2023-08-17T08:34:28;9.00;;;8.02;;
64816;SDS011;69411;45.656;11.740;2023-08-17T08:36:55;8.93;;;7.38;;
64816;SDS011;69411;45.656;11.740;2023-08-17T08:39:27;9.60;;;7.53;;
64816;SDS011;69411;45.656;11.740;2023-08-17T08:41:54;9.52;;;7.65;;
64816;SDS011;69411;45.656;11.740;2023-08-17T08:44:20;8.43;;;7.28;;
64816;SDS011;69411;45.656;11.740;2023-08-17T08:46:47;8.93;;;7.95;;
64816;SDS011;69411;45.656;11.740;2023-08-17T08:49:16;9.55;;;8.55;;
64816;SDS011;69411;45.656;11.740;2023-08-17T08:51:49;9.23;;;8.05;;
64816;SDS011;69411;45.656;11.740;2023-08-17T08:54:21;10.88;;;8.40;;
64816;SDS011;69411;45.656;11.740;2023-08-17T08:56:50;9.65;;;8.25;;
64816;SDS011;69411;45.656;11.740;2023-08-17T08:59:24;8.63;;;7.72;;
64816;SDS011;69411;45.656;11.740;2023-08-17T09:01:52;9.75;;;7.50;;
64816;SDS011;69411;45.656;11.740;2023-08-17T09:04:18;9.57;;;8.18;;
64816;SDS011;69411;45.656;11.740;2023-08-17T09:06:48;8.18;;;7.35;;
64816;SDS011;69411;45.656;11.740;2023-08-17T09:09:16;9.45;;;7.70;;
64816;SDS011;69411;45.656;11.740;2023-08-17T09:11:48;9.05;;;7.68;;
64816;SDS011;69411;45.656;11.740;2023-08-17T09:14:16;9.10;;;7.95;;
64816;SDS011;69411;45.656;11.740;2023-08-17T09:16:44;9.70;;;8.05;;
64816;SDS011;69411;45.656;11.740;2023-08-17T09:19:11;9.48;;;8.48;;
64816;SDS011;69411;45.656;11.740;2023-08-17T09:21:38;8.77;;;7.88;;
64816;SDS011;69411;45.656;11.740;2023-08-17T09:24:06;10.90;;;8.85;;
64816;SDS011;69411;45.656;11.740;2023-08-17T09:26:33;9.43;;;7.88;;
64816;SDS011;69411;45.656;11.740;2023-08-17T09:29:03;9.10;;;8.20;;
64816;SDS011;69411;45.656;11.740;2023-08-17T09:31:43;9.00;;;7.72;;
64816;SDS011;69411;45.656;11.740;2023-08-17T09:34:13;11.40;;;8.38;;
64816;SDS011;69411;45.656;11.740;2023-08-17T09:36:45;11.35;;;8.60;;
64816;SDS011;69411;45.656;11.740;2023-08-17T09:39:34;9.50;;;7.82;;
64816;SDS011;69411;45.656;11.740;2023-08-17T09:42:02;11.30;;;8.05;;
64816;SDS011;69411;45.656;11.740;2023-08-17T09:44:30;9.88;;;8.23;;
64816;SDS011;69411;45.656;11.740;2023-08-17T09:49:25;10.00;;;8.88;;
64816;SDS011;69411;45.656;11.740;2023-08-17T09:51:55;10.50;;;8.77;;
64816;SDS011;69411;45.656;11.740;2023-08-17T09:56:53;9.50;;;7.60;;
64816;SDS011;69411;45.656;11.740;2023-08-17T09:59:22;10.90;;;8.40;;
64816;SDS011;69411;45.656;11.740;2023-08-17T10:01:51;10.52;;;8.27;;
64816;SDS011;69411;45.656;11.740;2023-08-17T10:04:20;9.77;;;8.02;;
64816;SDS011;69411;45.656;11.740;2023-08-17T10:06:51;11.43;;;8.15;;
64816;SDS011;69411;45.656;11.740;2023-08-17T10:11:55;13.00;;;8.07;;
64816;SDS011;69411;45.656;11.740;2023-08-17T10:14:28;10.07;;;8.25;;
64816;SDS011;69411;45.656;11.740;2023-08-17T10:17:01;12.40;;;9.13;;
64816;SDS011;69411;45.656;11.740;2023-08-17T10:19:42;10.80;;;9.10;;
64816;SDS011;69411;45.656;11.740;2023-08-17T10:22:26;11.77;;;8.35;;
64816;SDS011;69411;45.656;11.740;2023-08-17T10:25:00;9.57;;;7.57;;
64816;SDS011;69411;45.656;11.740;2023-08-17T10:27:27;9.15;;;7.85;;
64816;SDS011;69411;45.656;11.740;2023-08-17T10:29:54;9.60;;;8.52;;
64816;SDS011;69411;45.656;11.740;2023-08-17T10:32:23;11.25;;;9.07;;
64816;SDS011;69411;45.656;11.740;2023-08-17T10:34:51;10.68;;;7.90;;
64816;SDS011;69411;45.656;11.740;2023-08-17T10:37:18;11.27;;;8.75;;
64816;SDS011;69411;45.656;11.740;2023-08-17T10:39:48;9.82;;;7.90;;
64816;SDS011;69411;45.656;11.740;2023-08-17T10:44:43;10.43;;;8.77;;
64816;SDS011;69411;45.656;11.740;2023-08-17T10:47:27;11.25;;;8.07;;
64816;SDS011;69411;45.656;11.740;2023-08-17T10:52:48;10.13;;;8.18;;
64816;SDS011;69411;45.656;11.740;2023-08-17T10:55:16;9.85;;;8.45;;
64816;SDS011;69411;45.656;11.740;2023-08-17T10:57:44;11.15;;;8.75;;
64816;SDS011;69411;45.656;11.740;2023-08-17T11:00:13;10.00;;;8.07;;
64816;SDS011;69411;45.656;11.740;2023-08-17T11:02:44;11.50;;;8.23;;
64816;SDS011;69411;45.656;11.740;2023-08-17T11:05:36;9.35;;;7.50;;
64816;SDS011;69411;45.656;11.740;2023-08-17T11:08:06;8.57;;;7.28;;
64816;SDS011;69411;45.656;11.740;2023-08-17T11:10:34;10.07;;;8.25;;
64816;SDS011;69411;45.656;11.740;2023-08-17T11:13:06;9.40;;;8.20;;
64816;SDS011;69411;45.656;11.740;2023-08-17T11:18:03;11.38;;;9.55;;
64816;SDS011;69411;45.656;11.740;2023-08-17T11:20:40;11.30;;;8.63;;
64816;SDS011;69411;45.656;11.740;2023-08-17T11:23:08;10.98;;;7.70;;
64816;SDS011;69411;45.656;11.740;2023-08-17T11:25:38;10.25;;;8.55;;
64816;SDS011;69411;45.656;11.740;2023-08-17T11:28:10;10.10;;;8.60;;
64816;SDS011;69411;45.656;11.740;2023-08-17T11:33:03;9.65;;;8.68;;
64816;SDS011;69411;45.656;11.740;2023-08-17T11:35:32;9.50;;;8.50;;
64816;SDS011;69411;45.656;11.740;2023-08-17T11:38:01;9.63;;;8.63;;
64816;SDS011;69411;45.656;11.740;2023-08-17T11:40:31;10.77;;;9.18;;
64816;SDS011;69411;45.656;11.740;2023-08-17T11:43:08;9.98;;;8.30;;
64816;SDS011;69411;45.656;11.740;2023-08-17T11:45:36;9.25;;;8.10;;
64816;SDS011;69411;45.656;11.740;2023-08-17T11:48:02;11.23;;;8.43;;
64816;SDS011;69411;45.656;11.740;2023-08-17T11:50:30;11.95;;;8.32;;
64816;SDS011;69411;45.656;11.740;2023-08-17T11:52:59;10.52;;;9.32;;
64816;SDS011;69411;45.656;11.740;2023-08-17T11:55:26;9.65;;;8.38;;
64816;SDS011;69411;45.656;11.740;2023-08-17T11:57:52;11.95;;;9.48;;
64816;SDS011;69411;45.656;11.740;2023-08-17T12:00:20;9.40;;;8.35;;
64816;SDS011;69411;45.656;11.740;2023-08-17T12:02:49;10.45;;;8.68;;
64816;SDS011;69411;45.656;11.740;2023-08-17T12:05:24;10.45;;;8.52;;
64816;SDS011;69411;45.656;11.740;2023-08-17T12:07:55;11.70;;;8.48;;
64816;SDS011;69411;45.656;11.740;2023-08-17T12:10:28;9.90;;;8.55;;
64816;SDS011;69411;45.656;11.740;2023-08-17T12:13:00;12.00;;;8.68;;
64816;SDS011;69411;45.656;11.740;2023-08-17T12:15:35;10.32;;;8.90;;
64816;SDS011;69411;45.656;11.740;2023-08-17T12:18:03;10.52;;;8.70;;
64816;SDS011;69411;45.656;11.740;2023-08-17T12:20:32;11.45;;;9.20;;
64816;SDS011;69411;45.656;11.740;2023-08-17T12:23:03;10.27;;;9.15;;
64816;SDS011;69411;45.656;11.740;2023-08-17T12:25:29;10.63;;;9.35;;
64816;SDS011;69411;45.656;11.740;2023-08-17T12:27:58;11.52;;;9.35;;
64816;SDS011;69411;45.656;11.740;2023-08-17T12:30:28;9.85;;;8.85;;
64816;SDS011;69411;45.656;11.740;2023-08-17T12:33:01;13.85;;;9.18;;
64816;SDS011;69411;45.656;11.740;2023-08-17T12:35:27;10.38;;;8.77;;
64816;SDS011;69411;45.656;11.740;2023-08-17T12:37:55;13.70;;;9.18;;
64816;SDS011;69411;45.656;11.740;2023-08-17T12:40:23;11.75;;;8.82;;
64816;SDS011;69411;45.656;11.740;2023-08-17T12:45:15;9.77;;;8.77;;
64816;SDS011;69411;45.656;11.740;2023-08-17T12:47:42;12.43;;;10.00;;
64816;SDS011;69411;45.656;11.740;2023-08-17T12:50:11;11.38;;;8.98;;
64816;SDS011;69411;45.656;11.740;2023-08-17T12:52:38;10.18;;;9.00;;
64816;SDS011;69411;45.656;11.740;2023-08-17T12:55:05;11.50;;;8.32;;
64816;SDS011;69411;45.656;11.740;2023-08-17T12:57:36;9.60;;;8.57;;
64816;SDS011;69411;45.656;11.740;2023-08-17T13:02:27;10.35;;;8.95;;
64816;SDS011;69411;45.656;11.740;2023-08-17T13:04:54;10.10;;;9.02;;
64816;SDS011;69411;45.656;11.740;2023-08-17T13:07:26;12.00;;;9.05;;
64816;SDS011;69411;45.656;11.740;2023-08-17T13:09:53;11.82;;;9.70;;
64816;SDS011;69411;45.656;11.740;2023-08-17T13:12:22;10.93;;;9.43;;
64816;SDS011;69411;45.656;11.740;2023-08-17T13:14:54;10.98;;;9.57;;
64816;SDS011;69411;45.656;11.740;2023-08-17T13:17:22;10.18;;;9.07;;
64816;SDS011;69411;45.656;11.740;2023-08-17T13:22:14;10.20;;;8.98;;
64816;SDS011;69411;45.656;11.740;2023-08-17T13:24:40;10.23;;;9.10;;
64816;SDS011;69411;45.656;11.740;2023-08-17T13:27:05;11.15;;;9.57;;
64816;SDS011;69411;45.656;11.740;2023-08-17T13:29:32;10.80;;;9.70;;
64816;SDS011;69411;45.656;11.740;2023-08-17T13:31:58;9.95;;;8.95;;
64816;SDS011;69411;45.656;11.740;2023-08-17T13:34:24;11.52;;;10.32;;
64816;SDS011;69411;45.656;11.740;2023-08-17T13:36:51;10.27;;;9.27;;
64816;SDS011;69411;45.656;11.740;2023-08-17T13:39:17;11.32;;;9.70;;
64816;SDS011;69411;45.656;11.740;2023-08-17T13:41:43;12.48;;;9.35;;
64816;SDS011;69411;45.656;11.740;2023-08-17T13:44:10;9.90;;;8.75;;
64816;SDS011;69411;45.656;11.740;2023-08-17T13:46:39;11.95;;;10.18;;
64816;SDS011;69411;45.656;11.740;2023-08-17T13:49:08;11.77;;;9.70;;
64816;SDS011;69411;45.656;11.740;2023-08-17T13:51:34;10.38;;;9.32;;
64816;SDS011;69411;45.656;11.740;2023-08-17T13:54:02;12.57;;;9.98;;
64816;SDS011;69411;45.656;11.740;2023-08-17T13:56:28;10.73;;;8.93;;
64816;SDS011;69411;45.656;11.740;2023-08-17T13:58:56;10.75;;;9.65;;
64816;SDS011;69411;45.656;11.740;2023-08-17T14:01:22;10.35;;;9.32;;
64816;SDS011;69411;45.656;11.740;2023-08-17T14:03:49;13.23;;;10.02;;
64816;SDS011;69411;45.656;11.740;2023-08-17T14:06:18;11.75;;;10.25;;
64816;SDS011;69411;45.656;11.740;2023-08-17T14:08:44;11.48;;;9.75;;
64816;SDS011;69411;45.656;11.740;2023-08-17T14:11:10;10.05;;;9.05;;
64816;SDS011;69411;45.656;11.740;2023-08-17T14:13:38;10.77;;;9.15;;
64816;SDS011;69411;45.656;11.740;2023-08-17T14:16:04;10.60;;;9.38;;
64816;SDS011;69411;45.656;11.740;2023-08-17T14:18:30;10.88;;;9.57;;
64816;SDS011;69411;45.656;11.740;2023-08-17T14:20:59;11.43;;;10.18;;
64816;SDS011;69411;45.656;11.740;2023-08-17T14:23:27;13.10;;;10.38;;
64816;SDS011;69411;45.656;11.740;2023-08-17T14:25:55;10.85;;;9.75;;
64816;SDS011;69411;45.656;11.740;2023-08-17T14:28:24;12.02;;;10.27;;
64816;SDS011;69411;45.656;11.740;2023-08-17T14:30:54;14.13;;;10.10;;
64816;SDS011;69411;45.656;11.740;2023-08-17T14:33:22;13.43;;;10.70;;
64816;SDS011;69411;45.656;11.740;2023-08-17T14:35:48;10.93;;;9.77;;
64816;SDS011;69411;45.656;11.740;2023-08-17T14:38:17;11.30;;;10.18;;
64816;SDS011;69411;45.656;11.740;2023-08-17T14:43:11;11.10;;;9.23;;
64816;SDS011;69411;45.656;11.740;2023-08-17T14:45:45;11.18;;;9.88;;
64816;SDS011;69411;45.656;11.740;2023-08-17T14:48:11;11.57;;;10.32;;
64816;SDS011;69411;45.656;11.740;2023-08-17T14:50:38;12.40;;;10.20;;
64816;SDS011;69411;45.656;11.740;2023-08-17T14:53:04;11.45;;;9.98;;
64816;SDS011;69411;45.656;11.740;2023-08-17T14:55:33;13.27;;;9.88;;
64816;SDS011;69411;45.656;11.740;2023-08-17T14:58:01;12.85;;;10.32;;
64816;SDS011;69411;45.656;11.740;2023-08-17T15:00:27;11.77;;;10.57;;